createdAt,value
2023-05-10T00:01:46.040Z,54.85
2023-05-10T00:04:48.717Z,54.88
2023-05-10T00:07:51.426Z,55.59
2023-05-10T00:10:54.191Z,54.79
2023-05-10T00:13:58.153Z,55.75
2023-05-10T00:17:00.913Z,55.62
2023-05-10T00:20:05.792Z,55.53
2023-05-10T00:23:08.376Z,55.46
2023-05-10T00:26:10.991Z,55.96
2023-05-10T00:29:14.905Z,56.18
2023-05-10T00:32:17.953Z,56.37
2023-05-10T00:35:20.918Z,55.67
2023-05-10T00:38:23.564Z,56.19
2023-05-10T00:41:26.139Z,56.67
2023-05-10T00:44:30.142Z,56.36
2023-05-10T00:47:33.775Z,56.81
2023-05-10T00:50:36.803Z,55.99
2023-05-10T00:53:39.390Z,56.36
2023-05-10T00:56:42.709Z,57.17
2023-05-10T00:59:47.216Z,56.68
2023-05-10T01:02:50.585Z,56.47
2023-05-10T01:05:53.418Z,57.13
2023-05-10T01:08:56.875Z,57.04
2023-05-10T01:12:00.322Z,57.81
2023-05-10T01:15:06.050Z,57.02
2023-05-10T01:18:10.959Z,57.55
2023-05-10T01:21:25.516Z,57.13
2023-05-10T01:25:01.664Z,58.33
2023-05-10T01:28:32.851Z,58.04
2023-05-10T01:32:14.476Z,58.38
2023-05-10T01:35:24.852Z,58.40
2023-05-10T01:38:35.105Z,59.98
2023-05-10T01:41:46.729Z,59.33
2023-05-10T01:45:00.203Z,59.74
2023-05-10T01:48:08.553Z,59.77
2023-05-10T01:51:13.314Z,59.07
2023-05-10T01:54:19.512Z,59.65
2023-05-10T01:57:24.220Z,59.77
2023-05-10T02:00:28.111Z,59.82
2023-05-10T02:03:33.062Z,60.31
2023-05-10T02:06:40.348Z,60.04
2023-05-10T02:09:48.340Z,60.57
2023-05-10T02:12:52.722Z,60.83
2023-05-10T02:15:56.644Z,61.71
2023-05-10T02:19:01.041Z,61.50
2023-05-10T02:22:05.829Z,60.86
2023-05-10T02:25:10.717Z,61.60
2023-05-10T02:28:14.975Z,60.70
2023-05-10T02:31:18.372Z,62.01
2023-05-10T02:34:22.090Z,62.05
2023-05-10T02:37:27.427Z,61.68
2023-05-10T02:40:31.944Z,61.98
2023-05-10T02:43:35.722Z,62.02
2023-05-10T02:46:38.856Z,62.34
2023-05-10T02:49:41.588Z,61.71
2023-05-10T02:52:49.014Z,62.11
2023-05-10T02:55:56.101Z,62.03
2023-05-10T02:58:58.745Z,62.63
2023-05-10T03:02:01.818Z,62.50
2023-05-10T03:05:05.001Z,62.60
2023-05-10T03:08:09.309Z,63.09
2023-05-10T03:11:25.177Z,63.28
2023-05-10T03:14:42.916Z,63.45
2023-05-10T03:17:50.884Z,63.60
2023-05-10T03:20:59.630Z,63.15
2023-05-10T03:24:09.065Z,63.60
2023-05-10T03:27:12.255Z,64.72
2023-05-10T03:30:15.864Z,64.01
2023-05-10T03:33:18.735Z,64.45
2023-05-10T03:36:21.630Z,63.40
2023-05-10T03:39:25.808Z,62.98
2023-05-10T03:42:28.443Z,64.29
2023-05-10T03:45:31.652Z,63.64
2023-05-10T03:48:34.735Z,63.95
2023-05-10T03:51:37.326Z,64.70
2023-05-10T03:54:41.261Z,64.25
2023-05-10T03:57:44.259Z,65.85
2023-05-10T04:00:46.967Z,66.12
2023-05-10T04:03:49.626Z,66.24
2023-05-10T04:06:52.267Z,66.49
2023-05-10T04:09:56.213Z,64.66
2023-05-10T04:12:58.995Z,65.53
2023-05-10T04:16:01.639Z,65.95
2023-05-10T04:19:04.726Z,67.04
2023-05-10T04:22:07.385Z,66.41
2023-05-10T04:25:11.811Z,66.50
2023-05-10T04:28:14.360Z,65.11
2023-05-10T04:31:17.047Z,65.24
2023-05-10T04:34:19.739Z,66.92
2023-05-10T04:37:23.842Z,67.11
2023-05-10T04:40:28.010Z,67.28
2023-05-10T04:43:30.580Z,66.46
2023-05-10T04:46:33.212Z,66.47
2023-05-10T04:49:35.918Z,66.16
2023-05-10T04:52:38.492Z,65.93
2023-05-10T04:55:42.450Z,67.61
2023-05-10T04:58:45.049Z,67.22
2023-05-10T05:01:47.678Z,66.41
2023-05-10T05:04:50.466Z,67.28
2023-05-10T05:07:53.080Z,66.33
2023-05-10T05:10:57.018Z,67.06
2023-05-10T05:14:00.823Z,66.54
2023-05-10T05:17:03.412Z,67.46
2023-05-10T05:20:07.337Z,65.76
2023-05-10T05:23:09.965Z,65.78
2023-05-10T05:26:14.043Z,66.52
2023-05-10T05:29:16.712Z,66.55
2023-05-10T05:32:19.307Z,66.34
2023-05-10T05:35:21.978Z,66.69
2023-05-10T05:38:24.651Z,64.36
2023-05-10T05:41:28.603Z,63.31
2023-05-10T05:44:31.187Z,63.90
2023-05-10T05:47:33.806Z,64.46
2023-05-10T05:50:36.432Z,63.85
2023-05-10T05:53:39.036Z,62.96
2023-05-10T05:56:42.997Z,62.89
2023-05-10T05:59:45.692Z,62.40
2023-05-10T06:02:48.914Z,62.70
2023-05-10T06:05:51.591Z,63.53
2023-05-10T06:08:54.162Z,61.92
2023-05-10T06:11:58.156Z,62.51
2023-05-10T06:15:00.828Z,63.35
2023-05-10T06:18:03.894Z,63.97
2023-05-10T06:21:06.772Z,62.08
2023-05-10T06:24:09.530Z,61.42
2023-05-10T06:27:13.462Z,59.66
2023-05-10T06:30:16.446Z,60.26
2023-05-10T06:33:19.046Z,61.32
2023-05-10T06:36:21.749Z,64.41
2023-05-10T06:39:24.306Z,57.79
2023-05-10T06:42:28.325Z,60.48
2023-05-10T06:45:30.932Z,58.23
2023-05-10T06:48:33.548Z,59.31
2023-05-10T06:51:36.141Z,57.82
2023-05-10T06:54:38.787Z,56.61
2023-05-10T06:57:42.724Z,55.18
2023-05-10T07:00:46.401Z,56.35
2023-05-10T07:03:49.168Z,56.39
2023-05-10T07:06:51.782Z,58.15
2023-05-10T07:09:54.387Z,57.46
2023-05-10T07:12:58.428Z,56.11
2023-05-10T07:16:02.881Z,56.93
2023-05-10T07:19:06.281Z,56.40
2023-05-10T07:22:09.020Z,55.46
2023-05-10T07:25:11.747Z,56.07
2023-05-10T07:28:16.125Z,56.47
2023-05-10T07:31:18.689Z,55.80
2023-05-10T07:34:21.275Z,54.48
2023-05-10T07:37:23.868Z,55.58
2023-05-10T07:40:26.716Z,52.91
2023-05-10T07:43:30.654Z,55.52
2023-05-10T07:46:33.296Z,53.23
2023-05-10T07:49:36.553Z,53.67
2023-05-10T07:52:39.220Z,54.12
2023-05-10T07:55:41.856Z,52.55
2023-05-10T07:58:45.787Z,53.08
2023-05-10T08:01:48.383Z,52.72
2023-05-10T08:04:50.965Z,52.79
2023-05-10T08:07:53.577Z,54.27
2023-05-10T08:10:56.160Z,55.47
2023-05-10T08:14:00.573Z,56.38
2023-05-10T08:17:03.166Z,55.36
2023-05-10T08:20:06.701Z,54.80
2023-05-10T08:23:09.599Z,54.15
2023-05-10T08:26:12.417Z,56.21
2023-05-10T08:29:16.427Z,53.47
2023-05-10T08:32:19.303Z,56.06
2023-05-10T08:35:21.879Z,57.36
2023-05-10T08:38:24.890Z,55.04
2023-05-10T08:41:27.805Z,54.23
2023-05-10T08:44:33.761Z,55.08
2023-05-10T08:47:38.852Z,55.05
2023-05-10T08:50:42.953Z,53.00
2023-05-10T08:53:46.565Z,56.25
2023-05-10T08:56:49.921Z,53.66
2023-05-10T08:59:54.251Z,54.00
2023-05-10T09:02:57.031Z,53.37
2023-05-10T09:05:59.853Z,54.90
2023-05-10T09:09:04.399Z,54.36
2023-05-10T09:12:08.386Z,55.70
2023-05-10T09:15:15.769Z,55.76
2023-05-10T09:18:18.806Z,57.19
2023-05-10T09:21:22.007Z,56.37
2023-05-10T09:24:27.548Z,56.05
2023-05-10T09:27:30.396Z,56.78
2023-05-10T09:30:34.465Z,57.35
2023-05-10T09:33:46.028Z,57.80
2023-05-10T09:36:57.283Z,58.23
2023-05-10T09:40:00.059Z,59.59
2023-05-10T09:43:04.527Z,58.94
2023-05-10T09:46:12.181Z,60.83
2023-05-10T09:49:16.926Z,60.69
2023-05-10T09:52:19.626Z,60.92
2023-05-10T09:55:24.178Z,62.13
2023-05-10T09:58:27.163Z,63.05
2023-05-10T10:01:31.430Z,64.37
2023-05-10T10:04:34.201Z,62.56
2023-05-10T10:07:37.321Z,63.71
2023-05-10T10:10:41.189Z,65.90
2023-05-10T10:13:44.039Z,66.10
2023-05-10T10:17:04.955Z,66.07
2023-05-10T10:20:12.079Z,69.78
2023-05-10T10:23:17.346Z,72.54
2023-05-10T10:26:21.927Z,77.61
2023-05-10T10:29:28.419Z,81.03
2023-05-10T10:32:46.575Z,87.98
2023-05-10T10:35:49.616Z,94.80
2023-05-10T10:39:02.373Z,97.97
2023-05-10T10:42:06.957Z,99.59
2023-05-10T10:45:16.137Z,100.00
2023-05-10T10:48:24.750Z,100.00
2023-05-10T10:51:32.118Z,100.00
2023-05-10T10:54:34.717Z,100.00
2023-05-10T10:57:49.389Z,100.00
2023-05-10T11:00:52.274Z,100.00
2023-05-10T11:04:20.605Z,100.00
2023-05-10T11:07:24.025Z,100.00
2023-05-10T11:10:27.675Z,100.00
2023-05-10T11:13:32.030Z,100.00
2023-05-10T11:16:44.778Z,100.00
2023-05-10T11:20:10.587Z,100.00
2023-05-10T11:23:16.684Z,100.00
2023-05-10T11:26:19.933Z,100.00
2023-05-10T11:29:22.599Z,100.00
2023-05-10T11:32:25.401Z,100.00
2023-05-10T11:35:29.796Z,100.00
2023-05-10T11:38:34.930Z,100.00
2023-05-10T11:41:37.511Z,100.00
2023-05-10T11:44:40.124Z,100.00
2023-05-10T11:47:44.243Z,100.00
2023-05-10T11:50:48.380Z,100.00
2023-05-10T11:53:52.510Z,100.00
2023-05-10T11:56:55.075Z,100.00
2023-05-10T11:59:59.651Z,100.00
2023-05-10T12:03:03.170Z,100.00
2023-05-10T12:06:09.140Z,100.00
2023-05-10T12:09:11.824Z,100.00
2023-05-10T12:12:18.366Z,100.00
2023-05-10T12:15:23.604Z,100.00
2023-05-10T12:18:26.692Z,100.00
2023-05-10T12:21:32.475Z,100.00
2023-05-10T12:24:36.864Z,100.00
2023-05-10T12:27:39.466Z,100.00
2023-05-10T12:30:42.194Z,100.00
2023-05-10T12:33:46.268Z,100.00
2023-05-10T12:36:54.174Z,100.00
2023-05-10T12:39:56.755Z,100.00
2023-05-10T12:42:59.395Z,100.00
2023-05-10T12:46:06.948Z,100.00
2023-05-10T12:49:09.987Z,100.00
2023-05-10T12:52:14.099Z,100.00
2023-05-10T12:55:16.996Z,100.00
2023-05-10T12:58:31.917Z,100.00
2023-05-10T13:01:38.132Z,100.00
2023-05-10T13:04:41.268Z,100.00
2023-05-10T13:07:46.102Z,100.00
2023-05-10T13:10:48.721Z,100.00
2023-05-10T13:13:51.316Z,100.00
2023-05-10T13:16:53.941Z,100.00
2023-05-10T13:19:56.696Z,100.00
2023-05-10T13:23:00.793Z,100.00
2023-05-10T13:26:03.353Z,100.00
2023-05-10T13:29:06.013Z,100.00
2023-05-10T13:32:08.743Z,100.00
2023-05-10T13:35:11.432Z,100.00
2023-05-10T13:38:15.608Z,100.00
2023-05-10T13:41:18.575Z,100.00
2023-05-10T13:44:22.393Z,100.00
2023-05-10T13:47:25.222Z,100.00
2023-05-10T13:50:27.920Z,100.00
2023-05-10T13:53:31.931Z,100.00
2023-05-10T13:56:34.566Z,100.00
2023-05-10T13:59:37.177Z,100.00
2023-05-10T14:02:40.002Z,100.00
2023-05-10T14:05:42.656Z,100.00
2023-05-10T14:08:46.623Z,100.00
2023-05-10T14:11:49.213Z,100.00
2023-05-10T14:14:51.808Z,100.00
2023-05-10T14:17:54.488Z,100.00
2023-05-10T14:20:57.142Z,100.00
2023-05-10T14:24:01.061Z,100.00
2023-05-10T14:27:03.721Z,100.00
2023-05-10T14:30:07.596Z,100.00
2023-05-10T14:33:10.234Z,100.00
2023-05-10T14:36:12.914Z,100.00
2023-05-10T14:39:17.353Z,100.00
2023-05-10T14:42:19.941Z,100.00
2023-05-10T14:45:23.417Z,100.00
2023-05-10T14:48:26.094Z,100.00
2023-05-10T14:51:28.673Z,100.00
2023-05-10T14:54:34.327Z,100.00
2023-05-10T14:57:37.131Z,100.00
2023-05-10T15:00:39.722Z,100.00
2023-05-10T15:03:42.904Z,100.00
2023-05-10T15:06:45.957Z,100.00
2023-05-10T15:09:50.444Z,100.00
2023-05-10T15:12:53.004Z,100.00
2023-05-10T15:15:55.716Z,100.00
2023-05-10T15:18:58.430Z,100.00
2023-05-10T15:22:01.186Z,100.00
2023-05-10T15:25:05.661Z,100.00
2023-05-10T15:28:08.292Z,100.00
2023-05-10T15:31:11.457Z,100.00
2023-05-10T15:34:14.136Z,100.00
2023-05-10T15:37:16.729Z,100.00
2023-05-10T15:40:20.904Z,100.00
2023-05-10T15:43:23.512Z,99.62
2023-05-10T15:46:26.092Z,100.00
2023-05-10T15:49:28.703Z,100.00
2023-05-10T15:52:31.333Z,99.23
2023-05-10T15:55:35.281Z,100.00
2023-05-10T15:58:39.032Z,100.00
2023-05-10T16:01:41.684Z,100.00
2023-05-10T16:04:45.014Z,100.00
2023-05-10T16:07:47.612Z,99.37
2023-05-10T16:10:52.237Z,100.00
2023-05-10T16:13:55.409Z,100.00
2023-05-10T16:16:58.069Z,100.00
2023-05-10T16:20:01.128Z,100.00
2023-05-10T16:23:05.486Z,100.00
2023-05-10T16:26:09.451Z,100.00
2023-05-10T16:29:12.061Z,100.00
2023-05-10T16:32:14.700Z,100.00
2023-05-10T16:35:17.854Z,100.00
2023-05-10T16:38:21.466Z,100.00
2023-05-10T16:41:26.390Z,100.00
2023-05-10T16:44:29.022Z,100.00
2023-05-10T16:47:31.611Z,100.00
2023-05-10T16:50:34.266Z,100.00
2023-05-10T16:53:37.720Z,100.00
2023-05-10T16:56:41.681Z,100.00
2023-05-10T16:59:44.235Z,100.00
2023-05-10T17:02:46.898Z,100.00
2023-05-10T17:05:49.588Z,100.00
2023-05-10T17:08:52.171Z,100.00
2023-05-10T17:11:56.084Z,100.00
2023-05-10T17:14:58.767Z,100.00
2023-05-10T17:18:01.389Z,100.00
2023-05-10T17:21:04.116Z,100.00
2023-05-10T17:24:06.935Z,100.00
2023-05-10T17:27:11.212Z,100.00
2023-05-10T17:30:14.431Z,100.00
2023-05-10T17:33:17.027Z,100.00
2023-05-10T17:36:19.683Z,100.00
2023-05-10T17:39:22.494Z,100.00
2023-05-10T17:42:26.437Z,100.00
2023-05-10T17:45:29.058Z,100.00
2023-05-10T17:48:31.691Z,100.00
2023-05-10T17:51:34.319Z,100.00
2023-05-10T17:54:36.885Z,100.00
2023-05-10T17:57:40.825Z,100.00
2023-05-10T18:00:43.434Z,100.00
2023-05-10T18:03:46.260Z,100.00
2023-05-10T18:06:49.264Z,100.00
2023-05-10T18:09:51.888Z,100.00
2023-05-10T18:12:55.806Z,100.00
2023-05-10T18:15:58.434Z,100.00
2023-05-10T18:19:01.098Z,100.00
2023-05-10T18:22:03.912Z,100.00
2023-05-10T18:25:07.402Z,100.00
2023-05-10T18:28:11.390Z,100.00
2023-05-10T18:31:13.999Z,100.00
2023-05-10T18:34:16.621Z,100.00
2023-05-10T18:37:19.405Z,100.00
2023-05-10T18:40:22.103Z,100.00
2023-05-10T18:43:26.304Z,100.00
2023-05-10T18:46:28.907Z,100.00
2023-05-10T18:49:32.027Z,100.00
2023-05-10T18:52:35.924Z,100.00
2023-05-10T18:55:38.568Z,100.00
2023-05-10T18:58:42.516Z,100.00
2023-05-10T19:01:45.339Z,100.00
2023-05-10T19:04:48.033Z,100.00
2023-05-10T19:07:50.698Z,100.00
2023-05-10T19:10:53.265Z,100.00
2023-05-10T19:13:57.234Z,100.00
2023-05-10T19:17:00.336Z,100.00
2023-05-10T19:20:04.109Z,100.00
2023-05-10T19:23:10.210Z,100.00
2023-05-10T19:26:13.359Z,100.00
2023-05-10T19:29:17.444Z,100.00
2023-05-10T19:32:20.157Z,100.00
2023-05-10T19:35:22.883Z,100.00
2023-05-10T19:38:26.550Z,100.00
2023-05-10T19:41:29.301Z,100.00
2023-05-10T19:44:33.362Z,100.00
2023-05-10T19:47:36.285Z,100.00
2023-05-10T19:50:39.196Z,100.00
2023-05-10T19:53:44.618Z,100.00
2023-05-10T19:56:47.243Z,100.00
2023-05-10T19:59:51.243Z,100.00
2023-05-10T20:02:54.320Z,100.00
2023-05-10T20:05:56.969Z,100.00
2023-05-10T20:08:59.631Z,100.00
2023-05-10T20:12:02.393Z,100.00
2023-05-10T20:15:07.942Z,100.00
2023-05-10T20:18:10.660Z,100.00
2023-05-10T20:21:13.477Z,100.00
2023-05-10T20:24:16.085Z,100.00
2023-05-10T20:27:21.005Z,100.00
2023-05-10T20:30:24.972Z,100.00
2023-05-10T20:33:27.603Z,100.00
2023-05-10T20:36:31.115Z,100.00
2023-05-10T20:39:33.693Z,100.00
2023-05-10T20:42:36.283Z,100.00
2023-05-10T20:45:40.328Z,100.00
2023-05-10T20:48:42.906Z,100.00
2023-05-10T20:51:45.548Z,100.00
2023-05-10T20:54:48.143Z,100.00
2023-05-10T20:57:51.396Z,100.00
2023-05-10T21:00:55.445Z,100.00
2023-05-10T21:03:58.051Z,100.00
2023-05-10T21:07:00.748Z,100.00
2023-05-10T21:10:03.515Z,100.00
2023-05-10T21:13:06.095Z,100.00
2023-05-10T21:16:10.051Z,100.00
2023-05-10T21:19:12.695Z,100.00
2023-05-10T21:22:15.309Z,100.00
2023-05-10T21:25:18.306Z,100.00
2023-05-10T21:28:20.898Z,100.00
2023-05-10T21:31:24.908Z,100.00
2023-05-10T21:34:27.821Z,100.00
2023-05-10T21:37:30.379Z,100.00
2023-05-10T21:40:32.986Z,100.00
2023-05-10T21:43:35.566Z,100.00
2023-05-10T21:46:39.507Z,100.00
2023-05-10T21:49:42.134Z,100.00
2023-05-10T21:52:44.739Z,100.00
2023-05-10T21:55:47.379Z,100.00
2023-05-10T21:58:49.958Z,100.00
2023-05-10T22:01:53.919Z,100.00
2023-05-10T22:04:56.733Z,100.00
2023-05-10T22:07:59.414Z,100.00
2023-05-10T22:11:02.041Z,100.00
2023-05-10T22:14:04.763Z,100.00
2023-05-10T22:17:08.785Z,100.00
2023-05-10T22:20:11.726Z,100.00
2023-05-10T22:23:14.462Z,100.00
2023-05-10T22:26:17.167Z,100.00
2023-05-10T22:29:19.753Z,100.00
2023-05-10T22:32:23.718Z,100.00
2023-05-10T22:35:26.420Z,100.00
2023-05-10T22:38:29.020Z,100.00
2023-05-10T22:41:31.613Z,100.00
2023-05-10T22:44:34.243Z,100.00
2023-05-10T22:47:38.232Z,100.00
2023-05-10T22:50:40.883Z,100.00
2023-05-10T22:53:43.594Z,100.00
2023-05-10T22:56:46.230Z,100.00
2023-05-10T22:59:49.158Z,100.00
2023-05-10T23:02:53.194Z,100.00
2023-05-10T23:05:55.779Z,100.00
2023-05-10T23:08:58.392Z,100.00
2023-05-10T23:12:00.976Z,100.00
2023-05-10T23:15:03.633Z,100.00
2023-05-10T23:18:09.561Z,100.00
2023-05-10T23:21:12.227Z,100.00
2023-05-10T23:24:14.809Z,100.00
2023-05-10T23:27:17.376Z,100.00
2023-05-10T23:30:20.171Z,100.00
2023-05-10T23:33:24.800Z,100.00
2023-05-10T23:36:27.390Z,100.00
2023-05-10T23:39:30.024Z,100.00
2023-05-10T23:42:33.684Z,100.00
2023-05-10T23:45:36.295Z,100.00
2023-05-10T23:48:40.256Z,100.00
2023-05-10T23:51:42.829Z,100.00
2023-05-10T23:54:46.070Z,100.00
2023-05-10T23:57:48.687Z,100.00
